Time;durP1;ratioP1;P1;durP2;ratioP2;P2;SDS_P1;SDS_P2;PMS_P1;PMS_P2;Temp;Humidity;BMP_temperature;BMP_pressure;BME280_temperature;BME280_humidity;BME280_pressure;Samples;Min_cycle;Max_cycle;Signal;HPM_P1;HPM_P2
2022/04/20 00:00:54;;;;;;;3.43;1.77;;;8.00;1.00;;;;;;5071766;28;20570;-73
2022/04/20 00:03:20;;;;;;;2.07;1.60;;;8.00;99.90;;;;;;5071941;28;20171;-73
2022/04/20 00:05:45;;;;;;;3.13;1.97;;;7.90;1.00;;;;;;5072426;28;20266;-73
2022/04/20 00:08:11;;;;;;;2.13;1.57;;;7.80;99.90;;;;;;5053957;28;20187;-73
2022/04/20 00:10:36;;;;;;;3.47;1.70;;;7.80;1.00;;;;;;5071916;28;20268;-74
2022/04/20 00:13:02;;;;;;;3.00;1.50;;;7.70;1.00;;;;;;5072049;28;20179;-73
2022/04/20 00:15:27;;;;;;;3.77;1.90;;;7.70;1.00;;;;;;5071789;28;20175;-73
2022/04/20 00:17:53;;;;;;;2.00;1.53;;;7.60;1.80;;;;;;5071876;28;20241;-73
2022/04/20 00:20:18;;;;;;;2.00;1.80;;;7.50;1.00;;;;;;5053764;28;20214;-73
2022/04/20 00:22:44;;;;;;;2.90;1.93;;;7.40;20.30;;;;;;5074780;28;20179;-72
2022/04/20 00:25:10;;;;;;;2.90;1.67;;;7.40;1.00;;;;;;5075279;28;20179;-73
2022/04/20 00:27:37;;;;;;;2.07;1.50;;;7.40;99.90;;;;;;5075406;28;20193;-72
2022/04/20 00:30:08;;;;;;;2.30;1.50;;;7.40;99.90;;;;;;5101669;22;20598;-74
2022/04/20 00:32:34;;;;;;;2.20;1.53;;;7.30;1.00;;;;;;5037172;28;20196;-73
2022/04/20 00:34:59;;;;;;;2.37;1.57;;;7.20;5.40;;;;;;5037123;28;20181;-73
2022/04/20 00:37:25;;;;;;;2.23;1.50;;;7.20;99.90;;;;;;5037405;28;20534;-73
2022/04/20 00:39:51;;;;;;;4.63;1.80;;;7.20;99.90;;;;;;5036649;28;20184;-73
2022/04/20 00:42:18;;;;;;;3.53;1.67;;;7.20;99.90;;;;;;5037083;28;20656;-74
2022/04/20 00:44:44;;;;;;;2.50;1.80;;;7.20;99.90;;;;;;5035328;28;20192;-73
2022/04/20 00:47:13;;;;;;;2.47;2.10;;;7.10;99.90;;;;;;5035368;28;20571;-74
2022/04/20 00:49:40;;;;;;;3.50;1.50;;;7.10;1.00;;;;;;5036416;28;20224;-74
2022/04/20 00:52:06;;;;;;;2.33;1.63;;;7.10;35.50;;;;;;5036729;28;20753;-73
2022/04/20 00:54:32;;;;;;;2.30;1.83;;;7.00;1.00;;;;;;5036143;28;20184;-73
2022/04/20 00:56:57;;;;;;;1.90;1.70;;;7.00;1.00;;;;;;5034845;28;20188;-73
2022/04/20 00:59:25;;;;;;;3.03;1.87;;;7.00;1.00;;;;;;5034932;28;20563;-73
2022/04/20 01:01:51;;;;;;;2.43;1.80;;;6.90;1.00;;;;;;5035897;28;20208;-73
2022/04/20 01:04:17;;;;;;;3.60;1.77;;;6.90;99.90;;;;;;5017987;28;20298;-73
2022/04/20 01:06:43;;;;;;;2.87;1.70;;;6.90;99.90;;;;;;5036258;28;20192;-73
2022/04/20 01:09:09;;;;;;;2.03;1.70;;;6.90;99.90;;;;;;5017970;28;20218;-73
2022/04/20 01:18:18;;;;;;;2.00;1.80;;;6.90;99.90;;;;;;5035812;28;20160;-74
2022/04/20 01:20:44;;;;;;;2.47;1.90;;;6.90;1.00;;;;;;5035738;28;20204;-73
2022/04/20 01:23:12;;;;;;;2.13;1.73;;;6.80;1.00;;;;;;5035633;28;20275;-73
2022/04/20 01:25:38;;;;;;;4.33;1.90;;;6.80;1.00;;;;;;5035335;28;20512;-73
2022/04/20 01:28:05;;;;;;;3.10;1.80;;;6.80;99.90;;;;;;5034381;28;20195;-73
2022/04/20 01:30:31;;;;;;;3.63;1.60;;;6.70;1.00;;;;;;5034848;28;20219;-74
2022/04/20 01:32:57;;;;;;;5.37;1.80;;;6.70;93.70;;;;;;5034719;28;20184;-73
2022/04/20 01:35:23;;;;;;;2.33;1.97;;;6.70;99.90;;;;;;5033988;28;20195;-73
2022/04/20 01:37:52;;;;;;;3.20;1.70;;;6.60;1.00;;;;;;5017460;28;20218;-73
2022/04/20 01:40:18;;;;;;;4.80;2.03;;;6.50;99.90;;;;;;5034738;28;20204;-74
2022/04/20 01:42:44;;;;;;;4.87;1.83;;;6.50;1.00;;;;;;5035091;28;20192;-73
2022/04/20 01:45:10;;;;;;;3.37;2.10;;;6.40;1.00;;;;;;5017393;28;20545;-73
2022/04/20 01:47:35;;;;;;;4.13;1.97;;;6.40;1.00;;;;;;5017660;28;20189;-73
2022/04/20 01:50:01;;;;;;;5.73;1.90;;;6.40;99.90;;;;;;5034986;28;20671;-74
2022/04/20 01:52:26;;;;;;;2.80;1.60;;;6.30;1.00;;;;;;5034028;28;20644;-73
2022/04/20 01:54:52;;;;;;;1.73;1.60;;;6.30;31.00;;;;;;5033803;28;20181;-74
2022/04/20 01:57:17;;;;;;;5.30;1.73;;;6.30;1.00;;;;;;5034145;28;20192;-73
2022/04/20 01:59:43;;;;;;;1.93;1.67;;;6.30;1.00;;;;;;5034936;28;20188;-73
2022/04/20 02:04:52;;;;;;;3.53;1.77;;;6.20;4.00;;;;;;5035152;28;20188;-73
2022/04/20 02:07:18;;;;;;;2.87;1.90;;;6.20;1.00;;;;;;5035171;28;20180;-73
2022/04/20 02:09:43;;;;;;;2.93;1.83;;;6.10;1.00;;;;;;5034785;28;20314;-74
2022/04/20 02:12:09;;;;;;;3.67;1.93;;;6.10;99.90;;;;;;5034042;28;20211;-74
2022/04/20 02:14:35;;;;;;;1.83;1.60;;;6.10;99.90;;;;;;5033628;28;20218;-73
2022/04/20 02:17:01;;;;;;;2.80;1.60;;;6.20;99.90;;;;;;5035013;28;20173;-73
2022/04/20 02:19:26;;;;;;;3.53;1.80;;;6.10;1.00;;;;;;5034324;28;20191;-73
2022/04/20 02:21:52;;;;;;;2.33;1.70;;;6.10;1.00;;;;;;5034170;28;20258;-73
2022/04/20 02:24:17;;;;;;;1.90;1.60;;;6.10;1.00;;;;;;5034414;28;20271;-73
2022/04/20 02:26:43;;;;;;;2.80;1.80;;;6.00;99.90;;;;;;5034584;28;20192;-72
2022/04/20 02:29:09;;;;;;;1.93;1.60;;;6.00;1.00;;;;;;5032710;28;20223;-73
2022/04/20 02:31:34;;;;;;;4.67;2.00;;;6.00;99.90;;;;;;5033895;28;20211;-73
2022/04/20 02:34:00;;;;;;;5.43;1.97;;;6.00;1.00;;;;;;5034096;28;20268;-73
2022/04/20 02:36:26;;;;;;;2.37;1.80;;;6.00;1.00;;;;;;5032688;28;20271;-73
2022/04/20 02:38:52;;;;;;;3.03;2.20;;;6.00;1.00;;;;;;5034318;28;20193;-73
2022/04/20 02:41:18;;;;;;;5.43;1.97;;;6.00;99.90;;;;;;5033908;28;20231;-74
2022/04/20 02:43:44;;;;;;;4.37;2.20;;;6.00;99.90;;;;;;5032660;28;20212;-73
2022/04/20 02:46:10;;;;;;;5.60;1.93;;;6.00;15.50;;;;;;5034428;28;20195;-73
2022/04/20 02:48:36;;;;;;;2.17;1.60;;;6.00;1.00;;;;;;5034503;28;20610;-74
2022/04/20 02:51:02;;;;;;;2.30;1.60;;;5.90;1.00;;;;;;5034091;28;20239;-73
2022/04/20 02:53:28;;;;;;;2.63;1.83;;;5.90;1.00;;;;;;5034257;28;20244;-73
2022/04/20 02:55:53;;;;;;;3.57;2.03;;;5.90;1.00;;;;;;5032388;28;20188;-73
2022/04/20 02:58:19;;;;;;;4.27;1.83;;;5.90;99.90;;;;;;5033179;28;20180;-73
2022/04/20 03:00:44;;;;;;;3.50;1.93;;;5.90;99.90;;;;;;5031832;28;20214;-74
2022/04/20 03:03:10;;;;;;;2.03;1.63;;;5.80;1.00;;;;;;5033129;28;20186;-73
2022/04/20 03:05:35;;;;;;;2.53;1.90;;;5.80;1.00;;;;;;5016824;28;20199;-73
2022/04/20 03:08:01;;;;;;;3.30;2.10;;;5.80;44.50;;;;;;5034107;28;20332;-73
2022/04/20 03:10:27;;;;;;;7.63;1.90;;;5.80;1.00;;;;;;5034181;28;20662;-74
2022/04/20 03:12:53;;;;;;;5.30;1.87;;;5.90;99.90;;;;;;5034053;28;20175;-73
2022/04/20 03:15:18;;;;;;;2.10;1.67;;;5.90;1.00;;;;;;5033324;28;20188;-73
2022/04/20 03:17:44;;;;;;;2.37;1.70;;;5.90;1.00;;;;;;5033932;28;20180;-73
2022/04/20 03:20:10;;;;;;;6.70;1.80;;;5.90;1.00;;;;;;5034024;28;20184;-75
2022/04/20 03:22:36;;;;;;;3.37;1.80;;;5.80;99.90;;;;;;5032972;28;20188;-73
2022/04/20 03:25:02;;;;;;;2.77;1.97;;;5.80;1.00;;;;;;5034188;28;20295;-74
2022/04/20 03:27:27;;;;;;;3.07;2.33;;;5.80;99.90;;;;;;5032589;28;20189;-74
2022/04/20 03:29:53;;;;;;;2.90;2.17;;;5.80;99.90;;;;;;5034378;28;20218;-74
2022/04/20 03:32:19;;;;;;;2.90;1.90;;;5.80;99.90;;;;;;5032503;28;20595;-74
2022/04/20 03:34:45;;;;;;;2.37;1.93;;;5.80;99.90;;;;;;5033475;28;20179;-73
2022/04/20 03:37:11;;;;;;;4.00;1.80;;;5.80;1.00;;;;;;5032776;28;20181;-74
2022/04/20 03:39:37;;;;;;;3.77;2.07;;;5.80;99.90;;;;;;5033857;28;20179;-73
2022/04/20 03:42:04;;;;;;;2.73;2.13;;;5.70;69.20;;;;;;5033709;28;20192;-74
2022/04/20 03:44:29;;;;;;;3.57;2.33;;;5.70;1.00;;;;;;5016535;28;20192;-74
2022/04/20 03:46:55;;;;;;;3.00;2.30;;;5.60;99.90;;;;;;5033884;28;20198;-74
2022/04/20 03:49:21;;;;;;;3.57;2.30;;;5.60;99.90;;;;;;5034330;28;20625;-74
2022/04/20 03:51:46;;;;;;;3.17;2.30;;;5.50;1.00;;;;;;5033767;28;20247;-74
2022/04/20 03:54:13;;;;;;;2.80;2.07;;;5.50;1.00;;;;;;5035050;28;20703;-74
2022/04/20 03:59:22;;;;;;;4.63;2.37;;;5.50;1.00;;;;;;5038931;28;20195;-72
2022/04/20 04:01:49;;;;;;;5.13;2.03;;;5.50;1.00;;;;;;5038236;28;20216;-74
2022/04/20 04:04:15;;;;;;;4.63;2.40;;;5.40;99.90;;;;;;5020638;28;20215;-74
2022/04/20 04:06:40;;;;;;;2.87;2.13;;;5.40;1.00;;;;;;5038592;28;20180;-74
2022/04/20 04:09:06;;;;;;;3.60;2.30;;;5.40;99.90;;;;;;5037618;28;20212;-74
2022/04/20 04:11:31;;;;;;;3.27;2.40;;;5.40;1.00;;;;;;5038779;28;20212;-74
2022/04/20 04:13:57;;;;;;;3.87;2.40;;;5.30;1.00;;;;;;5039942;28;20606;-74
2022/04/20 04:16:22;;;;;;;3.80;2.30;;;5.30;1.00;;;;;;5041122;28;20172;-74
2022/04/20 04:18:48;;;;;;;4.60;2.03;;;5.30;5.00;;;;;;5041900;28;20765;-73
2022/04/20 04:21:13;;;;;;;4.80;2.03;;;5.20;1.00;;;;;;5041534;28;20275;-72
2022/04/20 04:23:39;;;;;;;2.67;2.27;;;5.20;1.00;;;;;;5039546;28;20200;-72
2022/04/20 04:26:04;;;;;;;3.50;2.40;;;5.20;1.00;;;;;;5039315;28;20180;-72
2022/04/20 04:28:30;;;;;;;6.73;1.80;;;5.20;99.90;;;;;;5039316;28;20188;-70
2022/04/20 04:30:55;;;;;;;4.23;2.30;;;5.20;99.90;;;;;;5039459;28;20286;-71
2022/04/20 04:33:21;;;;;;;4.43;2.27;;;5.20;1.00;;;;;;5039597;28;20203;-72
2022/04/20 04:35:46;;;;;;;3.63;2.00;;;5.20;1.00;;;;;;5039177;28;20182;-72
2022/04/20 04:38:14;;;;;;;3.40;2.07;;;5.20;1.00;;;;;;5039108;28;20192;-72
2022/04/20 04:40:40;;;;;;;3.53;2.00;;;5.20;1.00;;;;;;5038567;28;20259;-72
2022/04/20 04:43:05;;;;;;;3.93;2.00;;;5.20;1.00;;;;;;5017913;28;20238;-73
2022/04/20 04:50:59;;;;;;;3.17;2.40;;;5.20;1.00;;;;;;5024368;28;20255;-71
2022/04/20 04:53:24;;;;;;;3.53;2.00;;;5.20;1.00;;;;;;5007013;28;20185;-72
2022/04/20 04:55:50;;;;;;;3.07;2.40;;;5.20;1.00;;;;;;5015052;28;20185;-72
2022/04/20 04:58:16;;;;;;;4.20;2.20;;;5.20;1.00;;;;;;5026296;28;20659;-72
2022/04/20 05:00:42;;;;;;;3.87;2.30;;;5.20;1.00;;;;;;5011978;28;20200;-72
2022/04/20 05:03:09;;;;;;;2.30;1.97;;;5.20;1.00;;;;;;5014500;28;20225;-72
2022/04/20 05:05:34;;;;;;;2.33;1.90;;;5.20;38.70;;;;;;5028970;28;20666;-72
2022/04/20 05:08:00;;;;;;;3.70;2.27;;;5.30;60.70;;;;;;5027667;28;20188;-72
2022/04/20 05:10:26;;;;;;;3.47;2.30;;;5.30;19.90;;;;;;5020512;28;20342;-73
2022/04/20 05:12:51;;;;;;;4.63;2.47;;;5.30;1.00;;;;;;5019996;28;20180;-72
2022/04/20 05:15:17;;;;;;;4.47;2.67;;;5.30;1.00;;;;;;5036579;28;20184;-73
2022/04/20 05:17:42;;;;;;;5.13;2.27;;;5.30;1.00;;;;;;5036086;28;20644;-73
2022/04/20 05:20:09;;;;;;;2.87;2.10;;;5.30;1.00;;;;;;5018623;28;20188;-71
2022/04/20 05:22:36;;;;;;;3.90;2.70;;;5.30;1.00;;;;;;5026682;28;20185;-73
2022/04/20 05:25:02;;;;;;;3.73;2.50;;;5.40;1.00;;;;;;5020244;28;20226;-72
2022/04/20 05:27:28;;;;;;;4.90;2.80;;;5.40;1.00;;;;;;5037875;28;20176;-72
2022/04/20 05:29:53;;;;;;;3.90;2.30;;;5.40;1.00;;;;;;5038129;28;20223;-72
2022/04/20 05:32:19;;;;;;;4.00;2.53;;;5.40;1.00;;;;;;5020256;28;20602;-72
2022/04/20 05:34:44;;;;;;;3.60;2.73;;;5.40;1.00;;;;;;5040785;28;20177;-72
2022/04/20 05:42:38;;;;;;;5.30;2.57;;;5.50;1.00;;;;;;5041610;28;20211;-72
2022/04/20 05:45:04;;;;;;;4.33;2.93;;;5.60;1.00;;;;;;5041063;28;20184;-72
2022/04/20 05:47:30;;;;;;;4.30;2.60;;;5.60;1.00;;;;;;5042157;28;20172;-72
2022/04/20 05:49:55;;;;;;;4.53;3.00;;;5.60;99.90;;;;;;5040556;28;20208;-72
2022/04/20 05:52:21;;;;;;;3.20;2.90;;;5.70;99.90;;;;;;5024753;28;20208;-72
2022/04/20 05:54:46;;;;;;;7.20;2.80;;;5.80;79.10;;;;;;5041724;28;20176;-72
2022/04/20 05:57:12;;;;;;;6.50;3.13;;;5.80;1.00;;;;;;5040438;28;20275;-72
2022/04/20 05:59:37;;;;;;;5.70;3.17;;;5.90;1.00;;;;;;5041112;28;20207;-72
2022/04/20 06:02:03;;;;;;;5.27;3.23;;;5.90;99.90;;;;;;5039216;28;20275;-72
2022/04/20 06:04:30;;;;;;;7.00;2.73;;;6.00;1.00;;;;;;5040266;28;20263;-72
2022/04/20 06:06:55;;;;;;;4.57;2.90;;;6.10;99.90;;;;;;5040262;28;20184;-72
2022/04/20 06:09:21;;;;;;;4.23;2.67;;;6.20;99.90;;;;;;5039997;28;20689;-72
2022/04/20 06:11:46;;;;;;;5.63;3.23;;;6.20;1.00;;;;;;5039979;28;20326;-72
2022/04/20 06:14:12;;;;;;;5.33;2.97;;;6.30;47.10;;;;;;5039125;28;20277;-72
2022/04/20 06:16:37;;;;;;;4.00;2.77;;;6.40;1.00;;;;;;5040700;28;20191;-72
2022/04/20 06:19:03;;;;;;;4.73;3.00;;;6.50;99.90;;;;;;5039506;28;20186;-72
2022/04/20 06:21:28;;;;;;;6.33;3.20;;;6.60;13.10;;;;;;5039226;28;20215;-73
2022/04/20 06:23:54;;;;;;;5.97;3.13;;;6.70;99.90;;;;;;5038186;28;20199;-73
2022/04/20 06:26:19;;;;;;;4.93;2.97;;;6.90;1.00;;;;;;5019371;28;20198;-73
2022/04/20 06:28:45;;;;;;;10.03;2.80;;;7.00;99.90;;;;;;5020263;28;20271;-73
2022/04/20 06:31:11;;;;;;;5.30;2.50;;;7.10;1.00;;;;;;5063351;22;20306;-75
2022/04/20 06:33:36;;;;;;;5.17;2.50;;;7.30;99.90;;;;;;5072564;28;20171;-74
2022/04/20 06:36:02;;;;;;;3.60;2.50;;;7.30;99.90;;;;;;5054813;28;20193;-74
2022/04/20 06:38:28;;;;;;;5.47;2.90;;;7.50;85.10;;;;;;5072489;28;20182;-76
2022/04/20 06:40:54;;;;;;;5.13;2.80;;;7.60;1.00;;;;;;5055956;28;20195;-75
2022/04/20 06:43:20;;;;;;;6.07;2.57;;;7.70;1.00;;;;;;5082803;28;20271;-74
2022/04/20 06:45:46;;;;;;;3.50;2.53;;;7.80;99.90;;;;;;5083037;28;20202;-74
2022/04/20 06:48:11;;;;;;;4.87;2.83;;;7.90;99.90;;;;;;5058283;28;20222;-75
2022/04/20 06:50:40;;;;;;;3.60;2.67;;;8.00;99.90;;;;;;5083051;28;20297;-75
2022/04/20 06:58:38;;;;;;;3.10;2.60;;;8.40;1.00;;;;;;5074817;28;20174;-74
2022/04/20 07:01:05;;;;;;;6.37;2.70;;;8.60;1.00;;;;;;5078322;28;20568;-74
2022/04/20 07:03:31;;;;;;;4.33;2.57;;;8.70;1.00;;;;;;5083137;28;20211;-73
2022/04/20 07:05:57;;;;;;;3.40;2.27;;;8.80;99.90;;;;;;5082347;28;20171;-75
2022/04/20 07:08:24;;;;;;;3.00;2.43;;;8.90;99.90;;;;;;5063818;28;20588;-74
2022/04/20 07:10:49;;;;;;;3.77;2.50;;;9.10;99.90;;;;;;5060870;28;20697;-75
2022/04/20 07:13:16;;;;;;;4.00;2.60;;;9.20;16.80;;;;;;5064998;28;20189;-75
2022/04/20 07:15:42;;;;;;;4.57;2.20;;;9.30;1.00;;;;;;5065457;28;20182;-75
2022/04/20 07:18:08;;;;;;;3.10;2.20;;;9.30;1.00;;;;;;5062606;28;20661;-76
2022/04/20 07:20:34;;;;;;;7.73;2.50;;;9.50;1.00;;;;;;5083017;28;20191;-75
2022/04/20 07:23:00;;;;;;;3.47;2.30;;;9.60;1.00;;;;;;5072864;28;20197;-74
2022/04/20 07:25:25;;;;;;;4.47;2.13;;;9.70;1.00;;;;;;5080296;28;20202;-75
2022/04/20 07:27:51;;;;;;;4.67;2.07;;;9.80;1.00;;;;;;5062333;28;20641;-75
2022/04/20 07:30:18;;;;;;;9.40;1.93;;;10.00;99.90;;;;;;5082224;28;20773;-74
2022/04/20 07:32:44;;;;;;;3.50;2.33;;;10.00;1.00;;;;;;5084692;28;20700;-73
2022/04/20 07:35:10;;;;;;;3.43;1.83;;;10.10;99.90;;;;;;5076559;28;20186;-75
2022/04/20 07:37:36;;;;;;;8.57;2.30;;;10.20;99.90;;;;;;5058685;28;20175;-74
2022/04/20 07:40:02;;;;;;;4.27;2.67;;;10.30;99.90;;;;;;5082251;28;20170;-74
2022/04/20 07:42:27;;;;;;;3.93;2.40;;;10.40;99.90;;;;;;5095370;28;20673;-76
2022/04/20 07:44:56;;;;;;;2.70;1.60;;;10.50;74.60;;;;;;5077196;28;20190;-76
2022/04/20 07:47:24;;;;;;;6.03;2.17;;;10.60;76.50;;;;;;5078648;28;20178;-75
2022/04/20 07:52:39;;;;;;;4.47;2.03;;;10.80;77.50;;;;;;5098864;28;20201;-76
2022/04/20 07:55:09;;;;;;;2.77;1.97;;;10.90;42.60;;;;;;5096973;28;20179;-74
2022/04/20 07:57:35;;;;;;;5.30;1.90;;;11.00;1.00;;;;;;5096730;28;20673;-74
2022/04/20 08:00:01;;;;;;;6.70;2.30;;;11.00;1.00;;;;;;5097199;28;20185;-74
2022/04/20 08:02:26;;;;;;;6.63;2.03;;;11.10;1.00;;;;;;5096596;28;20198;-75
2022/04/20 08:04:52;;;;;;;2.80;2.00;;;11.20;1.00;;;;;;5096769;28;20712;-73
2022/04/20 08:07:19;;;;;;;3.87;1.97;;;11.20;1.00;;;;;;5097340;28;20182;-74
2022/04/20 08:09:45;;;;;;;2.67;1.93;;;11.30;1.00;;;;;;5078157;28;20206;-74
2022/04/20 08:12:11;;;;;;;3.53;2.07;;;11.50;1.00;;;;;;5096305;28;20194;-75
2022/04/20 08:14:36;;;;;;;2.00;1.80;;;11.60;99.90;;;;;;5078123;28;20174;-74
2022/04/20 08:17:02;;;;;;;3.90;2.43;;;11.70;99.90;;;;;;5096470;28;20170;-73
2022/04/20 08:19:28;;;;;;;4.20;2.00;;;11.80;99.90;;;;;;5096939;28;20197;-75
2022/04/20 08:21:54;;;;;;;3.03;1.90;;;11.80;1.00;;;;;;5096303;28;20198;-74
2022/04/20 08:24:19;;;;;;;3.27;2.10;;;11.90;1.00;;;;;;5096115;28;20205;-74
2022/04/20 08:26:45;;;;;;;2.87;2.03;;;12.00;99.90;;;;;;5077975;28;20182;-74
2022/04/20 08:29:11;;;;;;;5.03;2.10;;;12.20;80.90;;;;;;5077771;28;20222;-75
2022/04/20 08:31:37;;;;;;;2.93;2.10;;;12.30;99.90;;;;;;5095879;28;20218;-75
2022/04/20 08:34:03;;;;;;;2.33;1.80;;;12.30;99.90;;;;;;5095865;28;20544;-74
2022/04/20 08:36:29;;;;;;;2.33;1.93;;;12.40;99.90;;;;;;5077850;28;20182;-74
2022/04/20 08:38:55;;;;;;;2.80;1.83;;;12.50;99.90;;;;;;5096134;28;20185;-74
2022/04/20 08:41:20;;;;;;;2.40;1.90;;;12.60;9.70;;;;;;5078098;28;20297;-74
2022/04/20 08:43:46;;;;;;;2.17;1.60;;;12.70;99.90;;;;;;5095835;28;20265;-74
2022/04/20 08:46:12;;;;;;;1.67;1.30;;;12.80;99.90;;;;;;5095851;28;20192;-72
2022/04/20 08:48:38;;;;;;;2.13;1.60;;;12.90;99.90;;;;;;5095633;28;20182;-74
2022/04/20 08:51:05;;;;;;;1.73;1.37;;;12.90;98.00;;;;;;5077474;28;20224;-75
2022/04/20 08:53:31;;;;;;;2.47;1.53;;;13.00;91.80;;;;;;5077304;28;20189;-74
2022/04/20 08:57:15;;;;;;;3.17;1.50;;;13.00;1.00;;;;;;5077413;28;20185;-75
2022/04/20 08:58:47;;;;;;;2.70;1.57;;;13.10;1.00;;;;;;5095171;28;20208;-74
2022/04/20 09:01:14;;;;;;;5.23;1.60;;;13.20;96.30;;;;;;5095449;28;20194;-74
2022/04/20 09:03:42;;;;;;;3.20;1.57;;;13.30;91.60;;;;;;5095347;28;20171;-74
2022/04/20 09:06:09;;;;;;;2.23;1.53;;;13.40;1.00;;;;;;5077057;28;20642;-75
2022/04/20 09:08:35;;;;;;;2.73;1.60;;;13.40;1.00;;;;;;5076965;28;20186;-74
2022/04/20 09:11:01;;;;;;;2.40;1.50;;;13.50;1.00;;;;;;5077009;28;20589;-75
2022/04/20 09:13:33;;;;;;;3.33;1.83;;;13.60;1.00;;;;;;5095499;28;20193;-74
2022/04/20 09:16:05;;;;;;;3.17;1.30;;;13.60;1.00;;;;;;5095152;28;20181;-74
2022/04/20 09:18:30;;;;;;;3.83;1.40;;;13.60;1.00;;;;;;5076987;28;20218;-73
2022/04/20 09:21:16;;;;;;;2.97;1.50;;;13.80;1.00;;;;;;5095112;28;20573;-75
2022/04/20 09:23:41;;;;;;;1.40;1.10;;;13.80;1.00;;;;;;5095859;28;20174;-74
2022/04/20 09:26:17;;;;;;;3.43;1.30;;;13.90;1.00;;;;;;5097833;28;20198;-74
2022/04/20 09:29:03;;;;;;;2.73;1.37;;;13.90;1.00;;;;;;5080236;28;20193;-74
2022/04/20 09:31:45;;;;;;;2.37;1.30;;;14.00;1.00;;;;;;5078879;28;20564;-75
2022/04/20 09:34:29;;;;;;;4.00;1.30;;;14.10;1.00;;;;;;5094794;28;20186;-75
2022/04/20 09:36:57;;;;;;;3.07;1.43;;;14.20;1.00;;;;;;5094935;28;20594;-75
2022/04/20 09:39:25;;;;;;;3.53;1.53;;;14.20;1.00;;;;;;5094641;28;20185;-75
2022/04/20 09:42:02;;;;;;;3.47;1.23;;;14.30;1.00;;;;;;5076368;28;20233;-75
2022/04/20 09:44:29;;;;;;;2.20;1.50;;;14.30;1.00;;;;;;5094794;28;20626;-76
2022/04/20 09:50:03;;;;;;;5.43;1.60;;;14.40;99.90;;;;;;5094799;28;20619;-76
2022/04/20 09:52:42;;;;;;;5.37;1.70;;;14.50;99.90;;;;;;5094675;28;20203;-75
2022/04/20 09:55:12;;;;;;;2.13;1.50;;;14.50;99.90;;;;;;5094005;28;20194;-76
2022/04/20 09:57:38;;;;;;;5.00;1.77;;;14.50;99.90;;;;;;5076214;28;20190;-75
2022/04/20 10:00:10;;;;;;;2.73;1.90;;;14.50;99.90;;;;;;5094306;28;20179;-76
2022/04/20 10:02:46;;;;;;;3.73;1.70;;;14.50;99.90;;;;;;5094158;28;20285;-75
2022/04/20 10:05:12;;;;;;;2.50;1.80;;;14.60;99.90;;;;;;5094421;28;20594;-75
2022/04/20 10:07:37;;;;;;;2.83;1.90;;;14.60;99.90;;;;;;5094158;28;20673;-75
2022/04/20 10:10:04;;;;;;;2.03;1.60;;;14.70;99.90;;;;;;5094002;28;20214;-76
2022/04/20 10:12:31;;;;;;;2.30;1.70;;;14.70;99.90;;;;;;5093988;28;20256;-73
2022/04/20 10:17:47;;;;;;;4.77;2.10;;;14.80;99.90;;;;;;5093838;28;20308;-74
2022/04/20 10:20:13;;;;;;;2.53;1.90;;;14.90;99.90;;;;;;5075318;28;20272;-75
2022/04/20 10:22:40;;;;;;;2.33;1.77;;;15.00;99.90;;;;;;5093392;28;20653;-75
2022/04/20 10:25:07;;;;;;;2.40;1.60;;;15.00;99.90;;;;;;5075146;28;20186;-75
2022/04/20 10:27:48;;;;;;;3.37;1.80;;;15.00;99.90;;;;;;5074995;28;20679;-76
2022/04/20 10:30:20;;;;;;;6.93;1.70;;;15.00;99.90;;;;;;5093498;28;20208;-75
2022/04/20 10:32:51;;;;;;;3.33;1.87;;;15.10;99.90;;;;;;5093259;28;20677;-75
2022/04/20 10:35:17;;;;;;;2.53;1.67;;;15.10;99.90;;;;;;5093532;28;20245;-76
2022/04/20 10:38:09;;;;;;;2.60;1.50;;;15.20;99.90;;;;;;5093225;28;20598;-74
2022/04/20 10:40:57;;;;;;;1.80;1.50;;;15.30;99.90;;;;;;5093388;28;20197;-76
2022/04/20 10:43:25;;;;;;;5.23;1.97;;;15.20;99.90;;;;;;5074984;28;20186;-76
2022/04/20 10:46:18;;;;;;;3.27;1.77;;;15.20;99.90;;;;;;5093158;28;20178;-76
2022/04/20 10:48:58;;;;;;;3.03;2.10;;;15.30;99.90;;;;;;5089223;28;20221;-75
2022/04/20 10:51:30;;;;;;;3.40;2.00;;;15.30;99.90;;;;;;5093807;28;20608;-75
2022/04/20 10:54:24;;;;;;;5.43;2.10;;;15.40;99.90;;;;;;5093249;28;20182;-76
2022/04/20 10:57:00;;;;;;;1.80;1.40;;;15.40;99.90;;;;;;5092839;28;20630;-76
2022/04/20 10:59:26;;;;;;;3.27;2.17;;;15.50;99.90;;;;;;5092929;28;20181;-75
2022/04/20 11:02:03;;;;;;;3.23;2.03;;;15.50;99.90;;;;;;5092774;28;20281;-74
2022/04/20 11:04:43;;;;;;;6.10;2.33;;;15.50;99.90;;;;;;5074652;28;20212;-75
2022/04/20 11:07:08;;;;;;;3.10;1.93;;;15.60;99.90;;;;;;5074769;28;20181;-75
2022/04/20 11:09:45;;;;;;;7.73;2.20;;;15.70;99.90;;;;;;5092965;28;20210;-75
2022/04/20 11:21:03;;;;;;;5.33;2.10;;;16.00;99.90;;;;;;5092910;28;20205;-75
2022/04/20 11:23:51;;;;;;;2.67;2.23;;;16.00;99.90;;;;;;5092734;28;20706;-75
2022/04/20 11:26:27;;;;;;;2.67;2.00;;;15.80;99.90;;;;;;5092915;28;20179;-75
2022/04/20 11:28:54;;;;;;;3.40;1.70;;;15.80;99.90;;;;;;5074371;28;20214;-75
2022/04/20 11:31:20;;;;;;;3.23;1.97;;;15.80;99.90;;;;;;5092445;28;20202;-75
2022/04/20 11:33:46;;;;;;;2.13;1.87;;;15.90;99.90;;;;;;5092547;28;20711;-75
2022/04/20 11:36:14;;;;;;;1.87;1.60;;;16.00;99.90;;;;;;5074087;28;20596;-73
2022/04/20 11:38:41;;;;;;;3.50;1.97;;;16.00;99.90;;;;;;5092046;28;20186;-76
2022/04/20 11:41:08;;;;;;;4.77;1.73;;;16.10;99.90;;;;;;5074035;28;20247;-75
2022/04/20 11:43:34;;;;;;;2.67;1.73;;;16.10;99.90;;;;;;5092237;28;20663;-75
2022/04/20 11:46:00;;;;;;;2.43;1.70;;;16.20;99.90;;;;;;5092194;28;20174;-75
2022/04/20 11:48:25;;;;;;;4.70;1.60;;;16.30;99.90;;;;;;5091976;28;20193;-75
2022/04/20 11:51:00;;;;;;;3.70;1.60;;;16.30;99.90;;;;;;5092067;28;20229;-76
2022/04/20 11:53:38;;;;;;;5.00;1.50;;;16.30;99.90;;;;;;5092113;28;20181;-75
2022/04/20 11:56:04;;;;;;;3.17;1.93;;;16.50;99.90;;;;;;5092056;28;20193;-73
2022/04/20 11:58:38;;;;;;;3.03;1.43;;;16.50;99.90;;;;;;5073887;28;20182;-73
2022/04/20 12:01:08;;;;;;;2.67;1.73;;;16.50;99.90;;;;;;5073714;28;20217;-75
2022/04/20 12:03:37;;;;;;;2.27;1.60;;;16.60;99.90;;;;;;5092094;28;20654;-75
2022/04/20 12:06:08;;;;;;;2.37;1.40;;;16.60;99.90;;;;;;5073952;28;20604;-74
2022/04/20 12:08:36;;;;;;;3.77;1.90;;;16.70;99.90;;;;;;5092053;28;20634;-74
2022/04/20 12:11:15;;;;;;;4.97;2.10;;;16.70;99.90;;;;;;5073614;28;20225;-75
2022/04/20 12:17:06;;;;;;;4.90;1.97;;;16.70;99.90;;;;;;5091812;28;20188;-74
2022/04/20 12:19:32;;;;;;;2.10;1.83;;;16.80;99.90;;;;;;5077288;28;20182;-74
2022/04/20 12:22:06;;;;;;;2.07;1.80;;;16.80;99.90;;;;;;5095339;28;20221;-75
2022/04/20 12:24:32;;;;;;;2.90;1.80;;;16.70;99.90;;;;;;5077272;28;20193;-75
2022/04/20 12:26:58;;;;;;;3.30;1.50;;;16.80;99.90;;;;;;5077269;28;20190;-75
2022/04/20 12:29:27;;;;;;;6.37;1.90;;;16.80;99.90;;;;;;5096674;28;20247;-75
2022/04/20 12:31:57;;;;;;;3.67;2.30;;;16.80;99.90;;;;;;5092777;22;20227;-91
2022/04/20 12:34:28;;;;;;;4.27;2.10;;;16.80;99.90;;;;;;5059514;28;20187;-90
2022/04/20 12:37:08;;;;;;;3.73;1.63;;;17.00;99.90;;;;;;5070287;28;20183;-91
2022/04/20 12:39:45;;;;;;;5.60;1.70;;;16.90;99.90;;;;;;5068086;28;20591;-90
2022/04/20 12:42:17;;;;;;;2.67;1.57;;;17.10;99.90;;;;;;5066083;28;20170;-89
2022/04/20 12:44:51;;;;;;;3.67;1.80;;;17.00;99.90;;;;;;5063435;28;20256;-92
2022/04/20 12:47:17;;;;;;;4.67;2.23;;;17.00;99.90;;;;;;5061475;28;20175;-90
2022/04/20 12:49:44;;;;;;;3.67;1.90;;;17.20;99.90;;;;;;5062261;28;20217;-91
2022/04/20 12:52:12;;;;;;;2.63;1.60;;;17.20;99.90;;;;;;5060623;28;20557;-91
2022/04/20 12:54:38;;;;;;;4.03;1.63;;;17.20;99.90;;;;;;5061261;28;20225;-91
2022/04/20 13:03:07;;;;;;;3.23;1.83;;;17.20;99.90;;;;;;5079970;28;20225;-92
2022/04/20 13:05:35;;;;;;;2.50;1.57;;;17.30;99.90;;;;;;5062743;28;20186;-91
2022/04/20 13:08:02;;;;;;;2.77;1.70;;;17.30;99.90;;;;;;5061657;28;20189;-91
2022/04/20 13:10:35;;;;;;;4.07;1.73;;;17.40;99.90;;;;;;5063033;28;20211;-92
2022/04/20 13:13:01;;;;;;;2.60;1.50;;;17.50;99.90;;;;;;5065131;28;20195;-92
2022/04/20 13:15:29;;;;;;;3.50;1.43;;;17.50;99.90;;;;;;5064505;28;20187;-91
2022/04/20 13:17:55;;;;;;;5.10;2.00;;;17.50;99.90;;;;;;5060463;28;20179;-91
2022/04/20 13:20:21;;;;;;;5.10;1.20;;;17.50;99.90;;;;;;5063585;28;20182;-91
2022/04/20 13:22:47;;;;;;;4.50;1.60;;;17.50;99.90;;;;;;5072079;28;20275;-91
2022/04/20 13:27:57;;;;;;;2.63;1.60;;;17.50;99.90;;;;;;5078756;28;20170;-91
2022/04/20 13:30:24;;;;;;;1.87;1.63;;;17.80;99.90;;;;;;5059560;28;20206;-91
2022/04/20 13:32:57;;;;;;;2.53;1.40;;;17.60;99.90;;;;;;5060852;28;20270;-91
2022/04/20 13:35:23;;;;;;;2.73;1.83;;;17.80;99.90;;;;;;5060286;28;20713;-91
2022/04/20 13:37:49;;;;;;;2.20;1.33;;;17.70;99.90;;;;;;5078673;28;20179;-91
2022/04/20 13:40:16;;;;;;;3.33;1.83;;;17.60;99.90;;;;;;5060148;28;20240;-91
2022/04/20 13:42:42;;;;;;;2.27;1.63;;;17.80;99.90;;;;;;5060078;28;20262;-91
2022/04/20 13:45:08;;;;;;;2.40;1.57;;;17.90;99.90;;;;;;5060633;28;20210;-92
2022/04/20 13:47:34;;;;;;;3.17;1.50;;;17.80;99.90;;;;;;5062297;28;20546;-91
2022/04/20 13:50:03;;;;;;;2.07;1.40;;;17.90;99.90;;;;;;5062565;28;20550;-91
2022/04/20 13:52:29;;;;;;;4.47;1.40;;;17.70;99.90;;;;;;5082247;28;20187;-92
2022/04/20 13:54:55;;;;;;;1.87;1.57;;;17.90;99.90;;;;;;5061802;28;20209;-92
2022/04/20 13:57:22;;;;;;;3.73;1.63;;;17.80;99.90;;;;;;5085519;28;20242;-92